createdAt,value
2022-08-24T00:00:30.370Z,101636.00
2022-08-24T00:06:35.290Z,101642.41
2022-08-24T00:09:21.521Z,101789.97
2022-08-24T00:23:04.479Z,101652.78
2022-08-24T00:25:53.420Z,101794.34
2022-08-24T00:32:38.757Z,101626.09
2022-08-24T00:36:15.171Z,101654.31
2022-08-24T00:39:25.657Z,101662.84
2022-08-24T00:46:33.539Z,101635.50
2022-08-24T01:09:28.294Z,101753.63
2022-08-24T01:15:26.652Z,101678.78
2022-08-24T01:18:34.454Z,101799.34
2022-08-24T01:28:41.469Z,101695.25
2022-08-24T01:38:52.291Z,101631.66
2022-08-24T01:41:47.415Z,101752.19
2022-08-24T01:47:30.707Z,101647.06
2022-08-24T01:50:14.849Z,101760.16
2022-08-24T01:53:05.480Z,101758.53
2022-08-24T01:55:44.029Z,101799.13
2022-08-24T01:58:26.786Z,101720.66
2022-08-24T02:05:00.475Z,101645.34
2022-08-24T02:08:30.805Z,101752.94
2022-08-24T02:11:17.670Z,101713.66
2022-08-24T02:14:08.497Z,101821.59
2022-08-24T02:16:40.823Z,101797.94
2022-08-24T02:19:22.604Z,101756.94
2022-08-24T02:22:14.677Z,101656.72
2022-08-24T02:25:56.835Z,101800.19
2022-08-24T02:28:48.464Z,101789.53
2022-08-24T02:32:07.231Z,101628.88
2022-08-24T02:35:02.023Z,101804.16
2022-08-24T02:37:43.641Z,101797.03
2022-08-24T02:43:30.325Z,101797.88
2022-08-24T02:56:42.405Z,101645.72
2022-08-24T03:17:53.098Z,101756.97
2022-08-24T03:21:04.713Z,101652.47
2022-08-24T03:48:01.089Z,101825.75
2022-08-24T03:50:59.297Z,101779.09
2022-08-24T03:53:43.538Z,101784.56
2022-08-24T03:59:19.721Z,101770.56
2022-08-24T04:02:51.955Z,101656.31
2022-08-24T04:11:51.789Z,101738.53
2022-08-24T04:15:23.707Z,101852.50
2022-08-24T04:18:09.859Z,101738.25
2022-08-24T04:21:21.497Z,101855.53
2022-08-24T04:24:53.165Z,101683.41
2022-08-24T04:29:09.206Z,101659.03
2022-08-24T04:30:27.715Z,101760.88
2022-08-24T04:33:14.675Z,101810.19
2022-08-24T04:35:58.696Z,101707.38
2022-08-24T04:38:40.307Z,101706.34
2022-08-24T04:41:31.102Z,101861.78
2022-08-24T04:44:05.565Z,101685.56
2022-08-24T04:46:36.820Z,101862.00
2022-08-24T04:49:44.755Z,101770.94
2022-08-24T04:52:57.997Z,101846.91
2022-08-24T04:56:10.740Z,101692.06
2022-08-24T04:58:59.790Z,101805.13
2022-08-24T05:01:30.181Z,101777.69
2022-08-24T05:03:59.155Z,101824.06
2022-08-24T05:10:54.904Z,101703.28
2022-08-24T05:13:39.758Z,101860.44
2022-08-24T05:19:13.265Z,101824.16
2022-08-24T05:21:43.720Z,101827.34
2022-08-24T05:24:16.903Z,101768.19
2022-08-24T05:39:38.219Z,101812.75
2022-08-24T05:42:18.214Z,101870.00
2022-08-24T05:45:46.282Z,101851.22
2022-08-24T05:51:25.497Z,101901.56
2022-08-24T05:53:54.594Z,101861.31
2022-08-24T05:59:41.824Z,101837.75
2022-08-24T06:02:21.274Z,101901.94
2022-08-24T06:04:55.317Z,101739.72
2022-08-24T06:07:48.745Z,101793.91
2022-08-24T06:13:45.091Z,101739.56
2022-08-24T06:25:25.414Z,101891.31
2022-08-24T06:28:06.962Z,101894.34
2022-08-24T06:34:08.619Z,101721.75
2022-08-24T06:37:24.996Z,101715.38
2022-08-24T06:40:28.691Z,101899.84
2022-08-24T06:50:40.478Z,101902.03
2022-08-24T06:53:27.125Z,101875.19
2022-08-24T06:56:47.129Z,101758.41
2022-08-24T07:07:02.821Z,101752.78
2022-08-24T07:20:09.908Z,101788.31
2022-08-24T07:29:52.739Z,101850.41
2022-08-24T07:35:56.474Z,101937.97
2022-08-24T07:47:15.415Z,101899.94
2022-08-24T07:57:58.362Z,101943.97
2022-08-24T08:07:42.962Z,101943.38
2022-08-24T08:10:22.472Z,101946.44
2022-08-24T08:12:58.948Z,101953.44
2022-08-24T10:02:12.350Z,101963.63
2022-08-24T10:11:44.825Z,101891.53
2022-08-24T10:21:29.119Z,101908.41
2022-08-24T10:24:44.577Z,101922.53
2022-08-24T10:27:59.042Z,101831.22
2022-08-24T10:30:50.457Z,101959.03
2022-08-24T10:33:21.575Z,101951.75
2022-08-24T10:36:01.982Z,101960.88
2022-08-24T10:38:32.838Z,101959.59
2022-08-24T10:41:25.889Z,101925.47
2022-08-24T10:44:16.507Z,101959.00
2022-08-24T10:47:00.263Z,101950.56
2022-08-24T10:50:06.174Z,101955.47
2022-08-24T10:53:06.157Z,101946.78
2022-08-24T10:55:35.344Z,101948.56
2022-08-24T10:58:25.457Z,101953.03
2022-08-24T11:00:52.660Z,101952.81
2022-08-24T11:03:28.120Z,101944.47
2022-08-24T11:05:57.170Z,101953.97
2022-08-24T11:08:26.684Z,101959.75
2022-08-24T11:11:10.618Z,101957.31
2022-08-24T11:13:49.281Z,101948.31
2022-08-24T11:16:25.770Z,101937.56
2022-08-24T11:18:56.040Z,101958.19
2022-08-24T11:21:36.335Z,101938.63
2022-08-24T11:24:06.474Z,101946.13
2022-08-24T11:26:48.534Z,101954.19
2022-08-24T11:29:21.011Z,101948.63
2022-08-24T11:31:50.410Z,101951.91
2022-08-24T11:34:30.278Z,101914.19
2022-08-24T11:36:57.621Z,101937.09
2022-08-24T11:39:29.468Z,101941.97
2022-08-24T11:42:00.298Z,101945.03
2022-08-24T11:44:49.026Z,101941.34
2022-08-24T11:47:37.970Z,101936.19
2022-08-24T11:50:18.354Z,101938.50
2022-08-24T11:52:52.760Z,101942.13
2022-08-24T11:55:26.458Z,101946.44
2022-08-24T11:58:02.462Z,101951.63
2022-08-24T12:00:42.504Z,101937.59
2022-08-24T12:03:24.861Z,101940.00
2022-08-24T12:05:58.668Z,101950.63
2022-08-24T12:08:35.054Z,101953.16
2022-08-24T12:11:13.375Z,101945.59
2022-08-24T12:13:56.546Z,101914.47
2022-08-24T12:16:41.866Z,101878.47
2022-08-24T12:19:33.578Z,101840.97
2022-08-24T12:22:11.502Z,101924.56
2022-08-24T12:24:41.336Z,101798.72
2022-08-24T12:27:12.149Z,101947.91
2022-08-24T12:29:43.938Z,101919.31
2022-08-24T12:32:15.422Z,101893.09
2022-08-24T12:34:58.686Z,101837.84
2022-08-24T12:37:31.879Z,101945.19
2022-08-24T12:40:05.390Z,101934.59
2022-08-24T12:42:39.025Z,101945.97
2022-08-24T12:45:11.015Z,101932.63
2022-08-24T12:47:44.823Z,101942.25
2022-08-24T12:50:24.602Z,101943.75
2022-08-24T12:53:22.916Z,101926.41
2022-08-24T12:56:31.649Z,101921.19
2022-08-24T12:59:07.345Z,101938.47
2022-08-24T13:01:40.841Z,101941.66
2022-08-24T13:04:14.119Z,101937.41
2022-08-24T13:06:49.824Z,101942.97
2022-08-24T13:09:32.913Z,101934.81
2022-08-24T13:12:24.333Z,101950.56
2022-08-24T13:15:14.698Z,101944.63
2022-08-24T13:17:42.110Z,101939.91
2022-08-24T13:20:21.705Z,101940.13
2022-08-24T13:23:04.264Z,101935.06
2022-08-24T13:25:53.986Z,101941.59
2022-08-24T13:28:41.245Z,101936.75
2022-08-24T13:31:32.313Z,101940.38
2022-08-24T13:34:20.338Z,101939.69
2022-08-24T13:37:01.496Z,101933.97
2022-08-24T13:40:14.361Z,101937.25
2022-08-24T13:43:02.835Z,101932.00
2022-08-24T13:45:36.909Z,101929.91
2022-08-24T13:48:47.600Z,101928.63
2022-08-24T13:51:29.893Z,101928.84
2022-08-24T13:54:22.514Z,101926.28
2022-08-24T13:57:06.319Z,101929.31
2022-08-24T14:00:00.379Z,101929.00
2022-08-24T14:02:41.868Z,101932.91
2022-08-24T14:05:19.200Z,101938.53
2022-08-24T14:07:53.728Z,101928.22
2022-08-24T14:10:39.712Z,101933.81
2022-08-24T14:13:25.885Z,101904.84
2022-08-24T14:15:59.662Z,101932.47
2022-08-24T14:18:37.841Z,101926.09
2022-08-24T14:21:08.828Z,101924.59
2022-08-24T14:23:48.961Z,101893.66
2022-08-24T14:27:03.621Z,101928.06
2022-08-24T14:29:38.083Z,101928.50
2022-08-24T14:32:38.035Z,101934.16
2022-08-24T14:35:31.694Z,101925.94
2022-08-24T14:38:12.707Z,101924.06
2022-08-24T14:40:56.045Z,101919.75
2022-08-24T14:43:31.302Z,101923.06
2022-08-24T14:46:10.674Z,101917.88
2022-08-24T14:48:47.253Z,101924.66
2022-08-24T14:51:34.507Z,101897.44
2022-08-24T14:54:09.301Z,101896.63
2022-08-24T14:56:50.424Z,101914.97
2022-08-24T14:59:30.126Z,101920.69
2022-08-24T15:02:31.298Z,101924.84
2022-08-24T15:05:06.463Z,101880.44
2022-08-24T15:07:36.399Z,101898.47
2022-08-24T15:10:11.941Z,101902.53
2022-08-24T15:12:44.223Z,101903.31
2022-08-24T15:15:14.868Z,101913.28
2022-08-24T15:17:51.851Z,101915.66
2022-08-24T15:20:29.780Z,101912.75
2022-08-24T15:23:02.360Z,101908.38
2022-08-24T15:25:36.290Z,101911.16
2022-08-24T15:28:09.762Z,101898.66
2022-08-24T15:30:39.194Z,101881.28
2022-08-24T15:33:11.010Z,101918.91
2022-08-24T15:35:41.729Z,101915.66
2022-08-24T15:38:21.560Z,101915.53
2022-08-24T15:40:51.612Z,101871.56
2022-08-24T15:43:19.012Z,101914.47
2022-08-24T15:45:52.141Z,101905.56
2022-08-24T15:48:21.370Z,101915.75
2022-08-24T15:50:50.064Z,101912.06
2022-08-24T15:53:32.741Z,101861.53
2022-08-24T15:56:20.431Z,101919.38
2022-08-24T15:58:50.735Z,101920.84
2022-08-24T16:01:24.562Z,101896.25
2022-08-24T16:04:09.634Z,101911.16
2022-08-24T16:07:27.129Z,101740.69
2022-08-24T16:10:41.765Z,101873.13
2022-08-24T16:13:47.475Z,101770.03
2022-08-24T16:17:05.263Z,101762.34
2022-08-24T16:35:44.343Z,101821.78
2022-08-24T16:44:58.856Z,101918.56
2022-08-24T16:45:22.675Z,101838.97
2022-08-24T17:12:41.547Z,101873.50
2022-08-24T17:17:40.489Z,101903.06
2022-08-24T17:33:46.364Z,101769.59
2022-08-24T17:36:32.420Z,101907.28
2022-08-24T17:39:05.035Z,101843.59
2022-08-24T17:46:08.931Z,101802.31
2022-08-24T19:14:36.867Z,101983.13
2022-08-24T19:17:55.863Z,101820.28
2022-08-24T20:30:20.633Z,101837.88
2022-08-24T20:33:16.045Z,101957.69
2022-08-24T20:36:45.516Z,101828.22
2022-08-24T21:58:17.371Z,101872.47
2022-08-24T22:01:41.656Z,101973.63
2022-08-24T22:08:17.010Z,101836.84
2022-08-24T22:16:41.094Z,101922.22
2022-08-24T22:29:22.962Z,101790.97
2022-08-24T22:35:58.756Z,101781.72
2022-08-24T22:39:07.848Z,101942.84
2022-08-24T22:42:01.181Z,101854.84
2022-08-24T22:44:38.187Z,101835.88
2022-08-24T22:50:51.092Z,101820.78
2022-08-24T22:57:00.163Z,101770.22
2022-08-24T23:03:00.979Z,101925.69
2022-08-24T23:05:41.219Z,101936.53
2022-08-24T23:22:12.123Z,101766.47
2022-08-24T23:25:43.933Z,101779.44
2022-08-24T23:32:34.215Z,101920.19
2022-08-24T23:35:37.622Z,101740.19
2022-08-24T23:48:15.499Z,101871.84
2022-08-24T23:51:19.565Z,101753.31
